sensor_id;sensor_type;location;lat;lon;timestamp;pressure;altitude;pressure_sealevel;temperature;humidity
69570;BME280;56781;42.292;23.146;2024-02-23T00:01:14;94983.63;;;3.18;70.41
69570;BME280;56781;42.292;23.146;2024-02-23T00:03:43;94545.94;;;0.19;69.99
69570;BME280;56781;42.292;23.146;2024-02-23T00:06:11;95058.31;;;3.67;70.52
69570;BME280;56781;42.292;23.146;2024-02-23T00:08:42;94440.16;;;-0.18;70.18
69570;BME280;56781;42.292;23.146;2024-02-23T00:11:10;94301.59;;;-0.96;70.14
69570;BME280;56781;42.292;23.146;2024-02-23T00:13:39;95192.69;;;5.05;70.51
69570;BME280;56781;42.292;23.146;2024-02-23T00:16:07;95202.13;;;5.26;70.40
69570;BME280;56781;42.292;23.146;2024-02-23T00:18:37;95190.28;;;5.48;68.45
69570;BME280;56781;42.292;23.146;2024-02-23T00:21:06;94698.66;;;2.23;67.84
69570;BME280;56781;42.292;23.146;2024-02-23T00:23:35;95090.19;;;5.29;66.37
69570;BME280;56781;42.292;23.146;2024-02-23T00:26:03;94412.78;;;1.34;63.06
69570;BME280;56781;42.292;23.146;2024-02-23T00:28:32;94258.84;;;0.06;64.65
69570;BME280;56781;42.292;23.146;2024-02-23T00:31:00;94951.22;;;4.62;65.76
69570;BME280;56781;42.292;23.146;2024-02-23T00:33:29;94537.94;;;1.77;66.88
69570;BME280;56781;42.292;23.146;2024-02-23T00:35:59;94654.81;;;2.33;66.57
69570;BME280;56781;42.292;23.146;2024-02-23T00:38:27;94890.81;;;3.89;66.46
69570;BME280;56781;42.292;23.146;2024-02-23T00:40:56;94456.81;;;1.12;66.62
69570;BME280;56781;42.292;23.146;2024-02-23T00:43:25;94784.59;;;3.40;67.24
69570;BME280;56781;42.292;23.146;2024-02-23T00:45:56;95071.19;;;5.29;67.78
69570;BME280;56781;42.292;23.146;2024-02-23T00:48:24;94577.25;;;1.82;67.28
69570;BME280;56781;42.292;23.146;2024-02-23T00:50:53;94883.88;;;3.95;67.91
69570;BME280;56781;42.292;23.146;2024-02-23T00:53:23;95198.38;;;6.11;68.63
69570;BME280;56781;42.292;23.146;2024-02-23T00:55:51;95032.81;;;5.20;68.62
69570;BME280;56781;42.292;23.146;2024-02-23T00:58:20;94894.09;;;4.16;69.54
69570;BME280;56781;42.292;23.146;2024-02-23T01:00:49;94670.50;;;2.65;68.81
69570;BME280;56781;42.292;23.146;2024-02-23T01:03:17;94590.78;;;2.30;68.53
69570;BME280;56781;42.292;23.146;2024-02-23T01:05:46;94468.38;;;1.53;68.68
69570;BME280;56781;42.292;23.146;2024-02-23T01:08:14;94522.72;;;2.03;69.21
69570;BME280;56781;42.292;23.146;2024-02-23T01:10:45;94450.50;;;1.34;70.43
69570;BME280;56781;42.292;23.146;2024-02-23T01:13:13;95055.78;;;5.47;70.68
69570;BME280;56781;42.292;23.146;2024-02-23T01:15:42;94726.44;;;3.09;71.01
69570;BME280;56781;42.292;23.146;2024-02-23T01:18:11;95068.91;;;5.34;71.96
69570;BME280;56781;42.292;23.146;2024-02-23T01:20:40;94722.25;;;3.15;72.10
69570;BME280;56781;42.292;23.146;2024-02-23T01:23:09;94603.91;;;2.28;72.22
69570;BME280;56781;42.292;23.146;2024-02-23T01:25:37;95055.38;;;5.38;73.21
69570;BME280;56781;42.292;23.146;2024-02-23T01:28:08;94424.78;;;1.03;73.43
69570;BME280;56781;42.292;23.146;2024-02-23T01:30:36;95180.09;;;6.04;74.68
69570;BME280;56781;42.292;23.146;2024-02-23T01:33:05;94634.06;;;2.41;74.09
69570;BME280;56781;42.292;23.146;2024-02-23T01:35:34;94730.34;;;3.15;74.51
69570;BME280;56781;42.292;23.146;2024-02-23T01:38:04;95158.38;;;6.01;75.04
69570;BME280;56781;42.292;23.146;2024-02-23T01:40:33;95041.34;;;5.25;74.91
69570;BME280;56781;42.292;23.146;2024-02-23T01:43:03;95116.78;;;5.78;74.48
69570;BME280;56781;42.292;23.146;2024-02-23T01:45:32;94600.25;;;2.10;74.64
69570;BME280;56781;42.292;23.146;2024-02-23T01:48:01;95036.25;;;5.09;74.69
69570;BME280;56781;42.292;23.146;2024-02-23T01:50:31;95159.06;;;5.90;75.25
69570;BME280;56781;42.292;23.146;2024-02-23T01:53:00;94811.94;;;3.31;75.87
69570;BME280;56781;42.292;23.146;2024-02-23T01:55:29;95130.66;;;5.66;75.85
69570;BME280;56781;42.292;23.146;2024-02-23T01:58:03;94731.03;;;3.05;75.15
69570;BME280;56781;42.292;23.146;2024-02-23T02:00:36;94875.75;;;3.91;76.16
69570;BME280;56781;42.292;23.146;2024-02-23T02:03:05;94842.56;;;3.50;76.38
69570;BME280;56781;42.292;23.146;2024-02-23T02:05:38;94466.03;;;1.10;77.25
69570;BME280;56781;42.292;23.146;2024-02-23T02:08:07;95152.31;;;5.48;77.65
69570;BME280;56781;42.292;23.146;2024-02-23T02:10:36;95047.78;;;4.92;77.38
69570;BME280;56781;42.292;23.146;2024-02-23T02:13:05;94734.78;;;2.52;77.22
69570;BME280;56781;42.292;23.146;2024-02-23T02:15:33;95037.69;;;4.89;76.92
69570;BME280;56781;42.292;23.146;2024-02-23T02:18:04;95124.63;;;5.21;77.58
69570;BME280;56781;42.292;23.146;2024-02-23T02:20:34;94522.72;;;1.25;77.37
69570;BME280;56781;42.292;23.146;2024-02-23T02:23:04;94780.75;;;2.56;77.35
69570;BME280;56781;42.292;23.146;2024-02-23T02:25:34;94765.53;;;2.78;77.81
69570;BME280;56781;42.292;23.146;2024-02-23T02:28:06;94870.50;;;3.20;77.03
69570;BME280;56781;42.292;23.146;2024-02-23T02:30:35;95119.84;;;5.00;77.00
69570;BME280;56781;42.292;23.146;2024-02-23T02:33:05;94806.69;;;3.05;74.20
69570;BME280;56781;42.292;23.146;2024-02-23T02:35:33;94656.09;;;2.47;71.52
69570;BME280;56781;42.292;23.146;2024-02-23T02:38:02;94537.91;;;1.74;72.27
69570;BME280;56781;42.292;23.146;2024-02-23T02:40:31;94478.06;;;1.20;71.99
69570;BME280;56781;42.292;23.146;2024-02-23T02:43:00;95114.22;;;5.34;73.35
69570;BME280;56781;42.292;23.146;2024-02-23T02:45:28;95001.16;;;4.61;73.32
69570;BME280;56781;42.292;23.146;2024-02-23T02:47:57;94536.13;;;1.51;72.87
69570;BME280;56781;42.292;23.146;2024-02-23T02:50:27;94561.50;;;1.47;73.48
69570;BME280;56781;42.292;23.146;2024-02-23T02:52:56;94446.19;;;0.92;73.58
69570;BME280;56781;42.292;23.146;2024-02-23T02:55:25;94999.94;;;4.55;72.92
69570;BME280;56781;42.292;23.146;2024-02-23T02:57:53;94309.44;;;-0.30;73.06
69570;BME280;56781;42.292;23.146;2024-02-23T03:00:22;94992.44;;;4.34;74.06
69570;BME280;56781;42.292;23.146;2024-02-23T03:02:50;94766.22;;;2.71;74.34
69570;BME280;56781;42.292;23.146;2024-02-23T03:05:19;94906.66;;;3.42;73.95
69570;BME280;56781;42.292;23.146;2024-02-23T03:07:49;94721.34;;;2.18;74.70
69570;BME280;56781;42.292;23.146;2024-02-23T03:10:17;94845.06;;;2.84;75.09
69570;BME280;56781;42.292;23.146;2024-02-23T03:12:46;94162.00;;;-1.75;75.05
69570;BME280;56781;42.292;23.146;2024-02-23T03:15:15;94694.00;;;1.52;75.16
69570;BME280;56781;42.292;23.146;2024-02-23T03:17:43;94644.66;;;0.92;76.79
69570;BME280;56781;42.292;23.146;2024-02-23T03:20:12;94855.66;;;2.32;77.16
69570;BME280;56781;42.292;23.146;2024-02-23T03:22:41;94400.63;;;-0.41;76.23
69570;BME280;56781;42.292;23.146;2024-02-23T03:25:11;95105.53;;;4.11;76.20
69570;BME280;56781;42.292;23.146;2024-02-23T03:27:39;94621.44;;;0.57;76.19
69570;BME280;56781;42.292;23.146;2024-02-23T03:30:09;94182.63;;;-2.41;75.84
69570;BME280;56781;42.292;23.146;2024-02-23T03:32:37;94694.84;;;1.03;77.26
69570;BME280;56781;42.292;23.146;2024-02-23T03:35:07;94515.47;;;0.12;75.98
69570;BME280;56781;42.292;23.146;2024-02-23T03:37:36;94382.94;;;-0.92;74.94
69570;BME280;56781;42.292;23.146;2024-02-23T03:40:06;95180.53;;;3.76;77.29
69570;BME280;56781;42.292;23.146;2024-02-23T03:42:36;95124.94;;;3.83;76.70
69570;BME280;56781;42.292;23.146;2024-02-23T03:45:05;95120.69;;;3.82;76.59
69570;BME280;56781;42.292;23.146;2024-02-23T03:47:34;95011.44;;;3.22;76.89
69570;BME280;56781;42.292;23.146;2024-02-23T03:50:03;94505.59;;;-0.07;77.50
69570;BME280;56781;42.292;23.146;2024-02-23T03:52:32;95126.13;;;4.19;77.29
69570;BME280;56781;42.292;23.146;2024-02-23T03:55:01;94903.31;;;2.51;76.30
69570;BME280;56781;42.292;23.146;2024-02-23T03:57:31;94930.75;;;2.87;76.58
69570;BME280;56781;42.292;23.146;2024-02-23T04:00:02;94644.66;;;0.92;76.24
69570;BME280;56781;42.292;23.146;2024-02-23T04:02:31;94687.69;;;1.41;76.23
69570;BME280;56781;42.292;23.146;2024-02-23T04:04:59;94552.56;;;0.26;75.99
69570;BME280;56781;42.292;23.146;2024-02-23T04:07:28;94683.22;;;1.26;73.14
69570;BME280;56781;42.292;23.146;2024-02-23T04:09:57;94511.63;;;-0.37;76.80
69570;BME280;56781;42.292;23.146;2024-02-23T04:12:26;94401.38;;;-0.90;77.35
69570;BME280;56781;42.292;23.146;2024-02-23T04:14:55;94688.88;;;0.91;76.26
69570;BME280;56781;42.292;23.146;2024-02-23T04:17:25;95125.56;;;4.03;77.66
69570;BME280;56781;42.292;23.146;2024-02-23T04:19:54;94550.25;;;0.01;76.57
69570;BME280;56781;42.292;23.146;2024-02-23T04:22:23;94799.59;;;1.62;75.25
69570;BME280;56781;42.292;23.146;2024-02-23T04:24:51;94874.97;;;2.08;77.25
69570;BME280;56781;42.292;23.146;2024-02-23T04:27:19;94740.66;;;0.84;77.80
69570;BME280;56781;42.292;23.146;2024-02-23T04:29:48;94710.75;;;0.89;77.26
69570;BME280;56781;42.292;23.146;2024-02-23T04:32:16;95145.16;;;3.92;77.10
69570;BME280;56781;42.292;23.146;2024-02-23T04:34:46;94750.31;;;1.61;76.87
69570;BME280;56781;42.292;23.146;2024-02-23T04:37:15;95054.56;;;4.20;75.83
69570;BME280;56781;42.292;23.146;2024-02-23T04:39:44;94497.34;;;0.62;74.23
69570;BME280;56781;42.292;23.146;2024-02-23T04:42:12;94573.28;;;1.05;73.95
69570;BME280;56781;42.292;23.146;2024-02-23T04:44:41;94645.06;;;1.50;73.70
69570;BME280;56781;42.292;23.146;2024-02-23T04:47:10;94801.97;;;2.98;73.83
69570;BME280;56781;42.292;23.146;2024-02-23T04:49:39;95130.06;;;5.25;74.05
69570;BME280;56781;42.292;23.146;2024-02-23T04:52:09;94496.63;;;0.65;74.18
69570;BME280;56781;42.292;23.146;2024-02-23T04:54:38;95136.59;;;5.13;74.46
69570;BME280;56781;42.292;23.146;2024-02-23T04:57:06;94651.84;;;1.71;73.35
69570;BME280;56781;42.292;23.146;2024-02-23T04:59:35;94666.94;;;1.79;75.44
69570;BME280;56781;42.292;23.146;2024-02-23T05:02:03;94793.69;;;2.39;75.66
69570;BME280;56781;42.292;23.146;2024-02-23T05:04:32;95137.16;;;4.88;75.10
69570;BME280;56781;42.292;23.146;2024-02-23T05:07:00;94518.41;;;0.83;75.05
69570;BME280;56781;42.292;23.146;2024-02-23T05:09:31;94429.34;;;0.35;75.10
69570;BME280;56781;42.292;23.146;2024-02-23T05:11:59;94483.72;;;0.78;74.68
69570;BME280;56781;42.292;23.146;2024-02-23T05:14:28;95044.09;;;4.63;75.02
69570;BME280;56781;42.292;23.146;2024-02-23T05:16:57;94485.34;;;0.86;74.45
69570;BME280;56781;42.292;23.146;2024-02-23T05:19:26;95163.91;;;4.94;75.19
69570;BME280;56781;42.292;23.146;2024-02-23T05:21:54;94750.81;;;2.34;74.95
69570;BME280;56781;42.292;23.146;2024-02-23T05:24:23;94995.66;;;3.99;76.38
69570;BME280;56781;42.292;23.146;2024-02-23T05:26:54;94786.19;;;2.63;75.93
69570;BME280;56781;42.292;23.146;2024-02-23T05:29:22;95153.78;;;4.83;77.21
69570;BME280;56781;42.292;23.146;2024-02-23T05:31:52;95022.41;;;4.08;76.30
69570;BME280;56781;42.292;23.146;2024-02-23T05:34:21;94998.19;;;3.85;76.94
69570;BME280;56781;42.292;23.146;2024-02-23T05:36:49;95120.19;;;4.95;76.43
69570;BME280;56781;42.292;23.146;2024-02-23T05:39:18;94592.78;;;1.25;74.87
69570;BME280;56781;42.292;23.146;2024-02-23T05:41:47;95121.38;;;5.01;74.83
69570;BME280;56781;42.292;23.146;2024-02-23T05:44:17;95146.25;;;5.10;74.97
69570;BME280;56781;42.292;23.146;2024-02-23T05:46:46;95155.00;;;4.93;75.47
69570;BME280;56781;42.292;23.146;2024-02-23T05:49:14;94506.13;;;0.55;75.15
69570;BME280;56781;42.292;23.146;2024-02-23T05:51:43;94592.28;;;1.16;74.90
69570;BME280;56781;42.292;23.146;2024-02-23T05:54:11;94403.59;;;0.04;74.46
69570;BME280;56781;42.292;23.146;2024-02-23T05:56:40;94651.84;;;1.71;73.46
69570;BME280;56781;42.292;23.146;2024-02-23T05:59:08;94691.75;;;2.26;73.25
69570;BME280;56781;42.292;23.146;2024-02-23T06:01:39;94490.25;;;1.10;73.51
69570;BME280;56781;42.292;23.146;2024-02-23T06:04:07;94860.94;;;3.26;72.93
69570;BME280;56781;42.292;23.146;2024-02-23T06:06:36;94440.47;;;0.60;72.99
69570;BME280;56781;42.292;23.146;2024-02-23T06:09:05;95164.34;;;5.58;73.17
69570;BME280;56781;42.292;23.146;2024-02-23T06:11:34;94590.09;;;1.59;74.14
69570;BME280;56781;42.292;23.146;2024-02-23T06:14:02;95162.88;;;5.68;73.73
69570;BME280;56781;42.292;23.146;2024-02-23T06:16:31;94610.56;;;2.00;73.89
69570;BME280;56781;42.292;23.146;2024-02-23T06:19:01;94815.25;;;3.59;73.60
69570;BME280;56781;42.292;23.146;2024-02-23T06:21:30;94610.84;;;1.88;73.48
69570;BME280;56781;42.292;23.146;2024-02-23T06:23:59;95180.94;;;6.19;72.75
69570;BME280;56781;42.292;23.146;2024-02-23T06:26:28;95100.50;;;5.78;72.63
69570;BME280;56781;42.292;23.146;2024-02-23T06:28:57;94831.09;;;4.22;72.17
69570;BME280;56781;42.292;23.146;2024-02-23T06:31:25;95167.88;;;6.93;70.61
69570;BME280;56781;42.292;23.146;2024-02-23T06:33:53;94875.59;;;5.27;68.54
69570;BME280;56781;42.292;23.146;2024-02-23T06:36:24;94941.56;;;6.38;67.11
69570;BME280;56781;42.292;23.146;2024-02-23T06:38:52;94370.63;;;3.24;64.02
69570;BME280;56781;42.292;23.146;2024-02-23T06:41:21;95180.38;;;9.05;63.29
69570;BME280;56781;42.292;23.146;2024-02-23T06:43:50;95175.84;;;9.33;61.67
69570;BME280;56781;42.292;23.146;2024-02-23T06:46:19;94804.19;;;7.11;61.11
69570;BME280;56781;42.292;23.146;2024-02-23T06:48:48;94694.22;;;5.72;61.75
69570;BME280;56781;42.292;23.146;2024-02-23T06:51:16;94761.28;;;5.61;64.20
69570;BME280;56781;42.292;23.146;2024-02-23T06:53:46;94927.56;;;6.54;65.96
69570;BME280;56781;42.292;23.146;2024-02-23T06:56:15;94764.75;;;4.89;67.66
69570;BME280;56781;42.292;23.146;2024-02-23T06:58:43;95189.56;;;7.64;68.68
69570;BME280;56781;42.292;23.146;2024-02-23T07:01:12;94555.84;;;3.14;69.13
69570;BME280;56781;42.292;23.146;2024-02-23T07:03:40;95184.81;;;7.97;67.63
69570;BME280;56781;42.292;23.146;2024-02-23T07:06:11;95112.16;;;8.57;64.35
69570;BME280;56781;42.292;23.146;2024-02-23T07:08:39;94580.91;;;4.66;64.10
69570;BME280;56781;42.292;23.146;2024-02-23T07:11:10;95099.19;;;8.05;64.62
69570;BME280;56781;42.292;23.146;2024-02-23T07:13:38;94872.50;;;6.25;66.01
69570;BME280;56781;42.292;23.146;2024-02-23T07:16:07;94597.91;;;4.13;66.92
69570;BME280;56781;42.292;23.146;2024-02-23T07:18:36;94638.19;;;4.65;65.01
69570;BME280;56781;42.292;23.146;2024-02-23T07:21:05;95065.03;;;7.90;64.87
69570;BME280;56781;42.292;23.146;2024-02-23T07:23:33;94990.72;;;7.08;64.52
69570;BME280;56781;42.292;23.146;2024-02-23T07:26:02;95033.09;;;7.94;62.31
69570;BME280;56781;42.292;23.146;2024-02-23T07:28:32;94747.28;;;7.38;58.95
69570;BME280;56781;42.292;23.146;2024-02-23T07:31:00;95169.19;;;11.25;56.21
69570;BME280;56781;42.292;23.146;2024-02-23T07:33:29;95176.94;;;11.30;55.08
69570;BME280;56781;42.292;23.146;2024-02-23T07:35:58;95152.50;;;10.93;55.20
69570;BME280;56781;42.292;23.146;2024-02-23T07:38:26;95154.53;;;11.12;53.61
69570;BME280;56781;42.292;23.146;2024-02-23T07:40:55;95125.63;;;10.60;54.10
69570;BME280;56781;42.292;23.146;2024-02-23T07:43:25;95142.16;;;12.34;51.08
69570;BME280;56781;42.292;23.146;2024-02-23T07:45:57;95118.13;;;12.02;50.67
69570;BME280;56781;42.292;23.146;2024-02-23T07:48:26;94699.34;;;9.12;50.31
69570;BME280;56781;42.292;23.146;2024-02-23T07:50:54;94565.66;;;8.88;49.14
69570;BME280;56781;42.292;23.146;2024-02-23T07:53:23;94877.41;;;11.08;49.95
69570;BME280;56781;42.292;23.146;2024-02-23T07:55:51;95043.13;;;12.12;48.45
69570;BME280;56781;42.292;23.146;2024-02-23T07:58:20;94618.00;;;9.27;47.43
69570;BME280;56781;42.292;23.146;2024-02-23T08:00:49;94500.25;;;9.28;47.04
69570;BME280;56781;42.292;23.146;2024-02-23T08:03:19;95031.03;;;12.79;46.48
69570;BME280;56781;42.292;23.146;2024-02-23T08:05:47;95137.72;;;13.59;46.31
69570;BME280;56781;42.292;23.146;2024-02-23T08:08:16;94645.94;;;10.18;44.99
69570;BME280;56781;42.292;23.146;2024-02-23T08:10:45;94971.59;;;12.23;44.63
69570;BME280;56781;42.292;23.146;2024-02-23T08:13:13;94831.28;;;11.43;45.45
69570;BME280;56781;42.292;23.146;2024-02-23T08:15:42;95041.22;;;13.11;43.51
69570;BME280;56781;42.292;23.146;2024-02-23T08:18:11;94527.66;;;9.41;44.41
69570;BME280;56781;42.292;23.146;2024-02-23T08:20:41;94771.13;;;11.56;44.70
69570;BME280;56781;42.292;23.146;2024-02-23T08:23:09;94609.91;;;10.23;45.07
69570;BME280;56781;42.292;23.146;2024-02-23T08:25:38;94869.34;;;12.39;43.89
69570;BME280;56781;42.292;23.146;2024-02-23T08:28:07;94883.59;;;12.79;43.25
69570;BME280;56781;42.292;23.146;2024-02-23T08:30:35;95133.91;;;14.69;42.69
69570;BME280;56781;42.292;23.146;2024-02-23T08:33:04;95146.03;;;15.10;41.93
69570;BME280;56781;42.292;23.146;2024-02-23T08:35:32;94640.31;;;12.05;40.22
69570;BME280;56781;42.292;23.146;2024-02-23T08:38:03;94996.69;;;14.68;39.84
69570;BME280;56781;42.292;23.146;2024-02-23T08:40:31;95151.47;;;15.48;39.88
69570;BME280;56781;42.292;23.146;2024-02-23T08:43:00;94877.00;;;13.61;40.62
69570;BME280;56781;42.292;23.146;2024-02-23T08:45:28;95053.56;;;14.07;39.54
69570;BME280;56781;42.292;23.146;2024-02-23T08:47:57;95123.94;;;13.75;39.86
69570;BME280;56781;42.292;23.146;2024-02-23T08:50:26;94964.13;;;12.73;39.32
69570;BME280;56781;42.292;23.146;2024-02-23T08:52:54;94571.59;;;10.07;40.12
69570;BME280;56781;42.292;23.146;2024-02-23T08:55:24;94852.88;;;12.39;38.82
69570;BME280;56781;42.292;23.146;2024-02-23T08:57:53;94547.13;;;10.72;41.34
69570;BME280;56781;42.292;23.146;2024-02-23T09:00:21;94982.38;;;13.41;39.72
69570;BME280;56781;42.292;23.146;2024-02-23T09:02:51;95072.84;;;13.78;40.30
69570;BME280;56781;42.292;23.146;2024-02-23T09:05:19;95038.97;;;13.81;42.26
69570;BME280;56781;42.292;23.146;2024-02-23T09:07:49;94877.41;;;12.46;40.69
69570;BME280;56781;42.292;23.146;2024-02-23T09:10:17;94574.78;;;10.58;41.55
69570;BME280;56781;42.292;23.146;2024-02-23T09:12:47;94777.66;;;11.94;40.37
69570;BME280;56781;42.292;23.146;2024-02-23T09:15:16;94691.59;;;11.10;41.15
69570;BME280;56781;42.292;23.146;2024-02-23T09:17:44;94802.13;;;12.02;39.45
69570;BME280;56781;42.292;23.146;2024-02-23T09:20:13;94701.16;;;11.02;39.23
69570;BME280;56781;42.292;23.146;2024-02-23T09:22:42;95158.19;;;14.16;39.69
69570;BME280;56781;42.292;23.146;2024-02-23T09:25:10;95045.84;;;12.98;39.83
69570;BME280;56781;42.292;23.146;2024-02-23T09:27:38;94643.44;;;10.80;40.28
69570;BME280;56781;42.292;23.146;2024-02-23T09:30:14;95153.28;;;14.24;40.48
69570;BME280;56781;42.292;23.146;2024-02-23T09:32:42;94996.00;;;12.99;40.35
69570;BME280;56781;42.292;23.146;2024-02-23T09:35:11;95140.75;;;14.23;39.72
69570;BME280;56781;42.292;23.146;2024-02-23T09:37:40;94894.88;;;12.52;40.41
69570;BME280;56781;42.292;23.146;2024-02-23T09:40:09;94885.22;;;12.77;40.24
69570;BME280;56781;42.292;23.146;2024-02-23T09:42:39;95147.03;;;14.91;38.96
69570;BME280;56781;42.292;23.146;2024-02-23T09:45:08;95085.72;;;14.35;39.01
69570;BME280;56781;42.292;23.146;2024-02-23T09:47:41;94597.03;;;11.54;39.06
69570;BME280;56781;42.292;23.146;2024-02-23T09:50:12;95070.19;;;15.05;38.80
69570;BME280;56781;42.292;23.146;2024-02-23T09:52:41;94926.13;;;14.61;37.41
69570;BME280;56781;42.292;23.146;2024-02-23T09:55:10;94985.22;;;15.39;36.98
69570;BME280;56781;42.292;23.146;2024-02-23T09:57:39;94769.25;;;13.15;36.40
69570;BME280;56781;42.292;23.146;2024-02-23T10:00:09;94621.69;;;12.13;37.29
69570;BME280;56781;42.292;23.146;2024-02-23T10:02:40;94638.06;;;12.42;37.38
69570;BME280;56781;42.292;23.146;2024-02-23T10:05:10;95153.19;;;15.68;37.85
69570;BME280;56781;42.292;23.146;2024-02-23T10:07:39;94773.59;;;12.99;37.51
69570;BME280;56781;42.292;23.146;2024-02-23T10:10:08;94827.06;;;13.75;37.34
69570;BME280;56781;42.292;23.146;2024-02-23T10:12:38;94568.97;;;12.47;37.23
69570;BME280;56781;42.292;23.146;2024-02-23T10:15:07;94828.81;;;13.94;36.30
69570;BME280;56781;42.292;23.146;2024-02-23T10:17:36;94965.97;;;14.69;36.42
69570;BME280;56781;42.292;23.146;2024-02-23T10:20:07;94794.16;;;13.97;36.81
69570;BME280;56781;42.292;23.146;2024-02-23T10:22:36;95048.72;;;15.48;36.76
69570;BME280;56781;42.292;23.146;2024-02-23T10:25:05;95116.63;;;16.11;36.63
69570;BME280;56781;42.292;23.146;2024-02-23T10:27:33;95118.19;;;16.12;36.47
69570;BME280;56781;42.292;23.146;2024-02-23T10:30:02;95115.72;;;16.14;35.96
69570;BME280;56781;42.292;23.146;2024-02-23T10:32:31;95022.84;;;14.98;35.94
69570;BME280;56781;42.292;23.146;2024-02-23T10:35:00;94801.56;;;13.87;36.88
69570;BME280;56781;42.292;23.146;2024-02-23T10:37:33;94934.28;;;14.39;36.84
69570;BME280;56781;42.292;23.146;2024-02-23T10:40:03;94817.94;;;13.91;35.95
69570;BME280;56781;42.292;23.146;2024-02-23T10:42:38;94801.91;;;13.77;35.69
69570;BME280;56781;42.292;23.146;2024-02-23T10:45:07;94823.72;;;14.06;35.48
69570;BME280;56781;42.292;23.146;2024-02-23T10:47:36;94598.25;;;12.50;36.20
69570;BME280;56781;42.292;23.146;2024-02-23T10:50:06;94829.69;;;14.04;35.30
69570;BME280;56781;42.292;23.146;2024-02-23T10:52:37;94799.59;;;13.62;36.28
69570;BME280;56781;42.292;23.146;2024-02-23T10:55:07;94535.38;;;11.92;35.88
69570;BME280;56781;42.292;23.146;2024-02-23T10:57:37;94737.94;;;13.25;35.88
69570;BME280;56781;42.292;23.146;2024-02-23T11:00:07;95078.41;;;15.66;36.22
69570;BME280;56781;42.292;23.146;2024-02-23T11:02:40;94828.81;;;13.94;37.25
69570;BME280;56781;42.292;23.146;2024-02-23T11:05:10;94896.69;;;13.85;36.80
69570;BME280;56781;42.292;23.146;2024-02-23T11:07:42;94865.22;;;13.73;36.13
69570;BME280;56781;42.292;23.146;2024-02-23T11:10:13;95033.44;;;15.34;36.21
69570;BME280;56781;42.292;23.146;2024-02-23T11:12:41;94785.41;;;13.64;35.68
69570;BME280;56781;42.292;23.146;2024-02-23T11:15:25;94863.16;;;14.37;36.15
69570;BME280;56781;42.292;23.146;2024-02-23T11:17:54;94708.41;;;13.42;35.12
69570;BME280;56781;42.292;23.146;2024-02-23T11:20:23;94774.84;;;13.75;34.50
69570;BME280;56781;42.292;23.146;2024-02-23T11:22:58;95073.78;;;15.76;35.74
69570;BME280;56781;42.292;23.146;2024-02-23T11:25:27;94546.00;;;12.15;35.28
69570;BME280;56781;42.292;23.146;2024-02-23T11:27:55;94604.41;;;12.41;35.18
69570;BME280;56781;42.292;23.146;2024-02-23T11:30:26;94592.53;;;12.70;35.68
69570;BME280;56781;42.292;23.146;2024-02-23T11:32:59;94683.34;;;13.27;35.58
69570;BME280;56781;42.292;23.146;2024-02-23T11:35:28;94552.50;;;12.22;35.10
69570;BME280;56781;42.292;23.146;2024-02-23T11:37:59;94677.75;;;12.92;35.38
69570;BME280;56781;42.292;23.146;2024-02-23T11:40:33;94976.56;;;14.93;36.40
69570;BME280;56781;42.292;23.146;2024-02-23T11:43:03;94595.28;;;12.70;36.41
69570;BME280;56781;42.292;23.146;2024-02-23T11:45:31;94531.00;;;12.58;35.19
69570;BME280;56781;42.292;23.146;2024-02-23T11:48:00;94817.75;;;14.68;36.35
69570;BME280;56781;42.292;23.146;2024-02-23T11:50:29;94967.72;;;15.55;35.65
69570;BME280;56781;42.292;23.146;2024-02-23T11:52:59;94622.13;;;13.39;35.35
69570;BME280;56781;42.292;23.146;2024-02-23T11:55:28;94523.72;;;12.77;35.31
69570;BME280;56781;42.292;23.146;2024-02-23T11:57:56;94942.75;;;15.71;35.13
69570;BME280;56781;42.292;23.146;2024-02-23T12:00:34;94951.28;;;15.42;35.10
69570;BME280;56781;42.292;23.146;2024-02-23T12:03:04;94541.97;;;12.71;34.70
69570;BME280;56781;42.292;23.146;2024-02-23T12:05:34;94779.50;;;14.13;34.10
69570;BME280;56781;42.292;23.146;2024-02-23T12:08:05;95037.97;;;15.85;35.69
69570;BME280;56781;42.292;23.146;2024-02-23T12:10:34;94938.50;;;15.35;34.03
69570;BME280;56781;42.292;23.146;2024-02-23T12:13:03;94690.13;;;13.61;35.31
69570;BME280;56781;42.292;23.146;2024-02-23T12:15:32;94396.34;;;11.80;34.80
69570;BME280;56781;42.292;23.146;2024-02-23T12:18:00;94511.31;;;12.85;34.54
69570;BME280;56781;42.292;23.146;2024-02-23T12:20:33;94921.91;;;15.48;34.64
69570;BME280;56781;42.292;23.146;2024-02-23T12:23:01;95003.00;;;16.04;34.79
69570;BME280;56781;42.292;23.146;2024-02-23T12:25:32;94958.84;;;15.28;35.40
69570;BME280;56781;42.292;23.146;2024-02-23T12:28:00;95040.81;;;15.94;35.36
69570;BME280;56781;42.292;23.146;2024-02-23T12:30:30;94582.03;;;12.81;35.20
69570;BME280;56781;42.292;23.146;2024-02-23T12:33:04;94969.59;;;15.58;35.57
69570;BME280;56781;42.292;23.146;2024-02-23T12:35:33;94920.56;;;15.52;34.33
69570;BME280;56781;42.292;23.146;2024-02-23T12:38:02;94396.22;;;11.70;34.30
69570;BME280;56781;42.292;23.146;2024-02-23T12:40:32;95026.72;;;15.57;34.71
69570;BME280;56781;42.292;23.146;2024-02-23T12:43:01;95041.41;;;15.54;35.14
69570;BME280;56781;42.292;23.146;2024-02-23T12:45:29;94905.56;;;14.88;34.72
69570;BME280;56781;42.292;23.146;2024-02-23T12:47:57;94762.28;;;13.87;35.63
69570;BME280;56781;42.292;23.146;2024-02-23T12:50:29;94543.72;;;12.39;34.62
69570;BME280;56781;42.292;23.146;2024-02-23T12:52:58;94469.47;;;11.95;34.34
69570;BME280;56781;42.292;23.146;2024-02-23T12:55:27;94812.03;;;14.27;34.29
69570;BME280;56781;42.292;23.146;2024-02-23T12:57:57;94986.66;;;15.65;34.97
69570;BME280;56781;42.292;23.146;2024-02-23T13:00:25;94456.78;;;11.89;35.91
69570;BME280;56781;42.292;23.146;2024-02-23T13:02:54;94926.91;;;15.18;34.53
69570;BME280;56781;42.292;23.146;2024-02-23T13:05:22;94991.97;;;15.60;34.80